sensor_id;sensor_type;location;lat;lon;timestamp;P1;durP1;ratioP1;P2;durP2;ratioP2
71806;SDS011;59655;42.590;23.364;2024-03-06T00:00:39;16.08;;;8.70;;
71806;SDS011;59655;42.590;23.364;2024-03-06T00:03:05;17.65;;;8.95;;
71806;SDS011;59655;42.590;23.364;2024-03-06T00:05:30;14.40;;;8.02;;
71806;SDS011;59655;42.590;23.364;2024-03-06T00:07:55;16.35;;;8.60;;
71806;SDS011;59655;42.590;23.364;2024-03-06T00:10:21;16.50;;;8.25;;
71806;SDS011;59655;42.590;23.364;2024-03-06T00:12:46;14.98;;;7.93;;
71806;SDS011;59655;42.590;23.364;2024-03-06T00:15:14;16.05;;;7.50;;
71806;SDS011;59655;42.590;23.364;2024-03-06T00:17:39;14.20;;;7.95;;
71806;SDS011;59655;42.590;23.364;2024-03-06T00:20:06;15.55;;;7.43;;
71806;SDS011;59655;42.590;23.364;2024-03-06T00:22:33;16.92;;;7.88;;
71806;SDS011;59655;42.590;23.364;2024-03-06T00:24:59;13.70;;;6.95;;
71806;SDS011;59655;42.590;23.364;2024-03-06T00:27:24;13.25;;;6.80;;
71806;SDS011;59655;42.590;23.364;2024-03-06T00:29:49;14.38;;;7.65;;
71806;SDS011;59655;42.590;23.364;2024-03-06T00:32:15;18.08;;;8.55;;
71806;SDS011;59655;42.590;23.364;2024-03-06T00:34:40;15.43;;;8.73;;
71806;SDS011;59655;42.590;23.364;2024-03-06T00:37:05;20.65;;;11.15;;
71806;SDS011;59655;42.590;23.364;2024-03-06T00:39:31;22.00;;;10.52;;
71806;SDS011;59655;42.590;23.364;2024-03-06T00:41:56;18.85;;;8.10;;
71806;SDS011;59655;42.590;23.364;2024-03-06T00:44:21;15.50;;;7.17;;
71806;SDS011;59655;42.590;23.364;2024-03-06T00:46:47;14.48;;;6.85;;
71806;SDS011;59655;42.590;23.364;2024-03-06T00:49:12;13.57;;;7.05;;
71806;SDS011;59655;42.590;23.364;2024-03-06T00:51:37;15.13;;;7.80;;
71806;SDS011;59655;42.590;23.364;2024-03-06T00:54:03;14.50;;;7.75;;
71806;SDS011;59655;42.590;23.364;2024-03-06T00:56:29;15.57;;;9.00;;
71806;SDS011;59655;42.590;23.364;2024-03-06T00:58:55;15.27;;;7.95;;
71806;SDS011;59655;42.590;23.364;2024-03-06T01:01:21;14.88;;;8.02;;
71806;SDS011;59655;42.590;23.364;2024-03-06T01:03:46;14.77;;;7.32;;
71806;SDS011;59655;42.590;23.364;2024-03-06T01:06:12;16.30;;;8.13;;
71806;SDS011;59655;42.590;23.364;2024-03-06T01:08:37;14.13;;;8.18;;
71806;SDS011;59655;42.590;23.364;2024-03-06T01:11:03;21.73;;;7.85;;
71806;SDS011;59655;42.590;23.364;2024-03-06T01:13:29;14.80;;;7.93;;
71806;SDS011;59655;42.590;23.364;2024-03-06T01:15:55;13.60;;;6.35;;
71806;SDS011;59655;42.590;23.364;2024-03-06T01:18:20;12.45;;;6.47;;
71806;SDS011;59655;42.590;23.364;2024-03-06T01:20:45;16.00;;;6.93;;
71806;SDS011;59655;42.590;23.364;2024-03-06T01:23:11;18.30;;;7.30;;
71806;SDS011;59655;42.590;23.364;2024-03-06T01:25:36;17.75;;;8.23;;
71806;SDS011;59655;42.590;23.364;2024-03-06T01:28:01;14.73;;;7.22;;
71806;SDS011;59655;42.590;23.364;2024-03-06T01:30:27;15.98;;;7.97;;
71806;SDS011;59655;42.590;23.364;2024-03-06T01:32:52;19.65;;;9.60;;
71806;SDS011;59655;42.590;23.364;2024-03-06T01:35:18;18.35;;;10.10;;
71806;SDS011;59655;42.590;23.364;2024-03-06T01:37:45;20.00;;;11.43;;
71806;SDS011;59655;42.590;23.364;2024-03-06T01:40:11;22.77;;;12.70;;
71806;SDS011;59655;42.590;23.364;2024-03-06T01:42:37;24.30;;;13.65;;
71806;SDS011;59655;42.590;23.364;2024-03-06T01:45:03;21.58;;;12.57;;
71806;SDS011;59655;42.590;23.364;2024-03-06T01:47:29;21.02;;;11.85;;
71806;SDS011;59655;42.590;23.364;2024-03-06T01:49:54;25.52;;;12.02;;
71806;SDS011;59655;42.590;23.364;2024-03-06T01:52:20;25.50;;;11.85;;
71806;SDS011;59655;42.590;23.364;2024-03-06T01:54:47;29.45;;;13.80;;
71806;SDS011;59655;42.590;23.364;2024-03-06T01:57:14;23.95;;;12.27;;
71806;SDS011;59655;42.590;23.364;2024-03-06T01:59:41;27.05;;;14.18;;
71806;SDS011;59655;42.590;23.364;2024-03-06T02:02:07;27.42;;;13.60;;
71806;SDS011;59655;42.590;23.364;2024-03-06T02:07:01;40.22;;;21.20;;
71806;SDS011;59655;42.590;23.364;2024-03-06T02:09:27;40.28;;;17.08;;
71806;SDS011;59655;42.590;23.364;2024-03-06T02:11:52;59.80;;;24.73;;
71806;SDS011;59655;42.590;23.364;2024-03-06T02:14:18;35.72;;;15.73;;
71806;SDS011;59655;42.590;23.364;2024-03-06T02:16:44;30.98;;;12.82;;
71806;SDS011;59655;42.590;23.364;2024-03-06T02:19:09;22.27;;;11.48;;
71806;SDS011;59655;42.590;23.364;2024-03-06T02:21:34;23.48;;;11.93;;
71806;SDS011;59655;42.590;23.364;2024-03-06T02:24:00;31.55;;;24.08;;
71806;SDS011;59655;42.590;23.364;2024-03-06T02:26:25;17.70;;;8.15;;
71806;SDS011;59655;42.590;23.364;2024-03-06T02:28:51;15.70;;;7.55;;
71806;SDS011;59655;42.590;23.364;2024-03-06T02:31:18;14.25;;;8.23;;
71806;SDS011;59655;42.590;23.364;2024-03-06T02:33:44;21.83;;;13.93;;
71806;SDS011;59655;42.590;23.364;2024-03-06T02:36:12;16.92;;;7.72;;
71806;SDS011;59655;42.590;23.364;2024-03-06T02:38:37;21.17;;;8.35;;
71806;SDS011;59655;42.590;23.364;2024-03-06T02:41:03;18.48;;;8.05;;
71806;SDS011;59655;42.590;23.364;2024-03-06T02:43:28;27.33;;;9.60;;
71806;SDS011;59655;42.590;23.364;2024-03-06T02:45:53;21.13;;;9.45;;
71806;SDS011;59655;42.590;23.364;2024-03-06T02:48:19;23.83;;;9.02;;
71806;SDS011;59655;42.590;23.364;2024-03-06T02:50:44;23.55;;;9.63;;
71806;SDS011;59655;42.590;23.364;2024-03-06T02:53:10;28.13;;;9.00;;
71806;SDS011;59655;42.590;23.364;2024-03-06T02:55:36;24.65;;;10.05;;
71806;SDS011;59655;42.590;23.364;2024-03-06T02:58:02;28.05;;;10.50;;
71806;SDS011;59655;42.590;23.364;2024-03-06T03:00:28;23.08;;;8.90;;
71806;SDS011;59655;42.590;23.364;2024-03-06T03:02:53;24.15;;;8.95;;
71806;SDS011;59655;42.590;23.364;2024-03-06T03:05:18;16.85;;;7.43;;
71806;SDS011;59655;42.590;23.364;2024-03-06T03:07:44;17.42;;;8.15;;
71806;SDS011;59655;42.590;23.364;2024-03-06T03:10:09;20.00;;;8.55;;
71806;SDS011;59655;42.590;23.364;2024-03-06T03:12:35;22.70;;;9.43;;
71806;SDS011;59655;42.590;23.364;2024-03-06T03:15:03;23.02;;;12.07;;
71806;SDS011;59655;42.590;23.364;2024-03-06T03:17:29;20.73;;;10.43;;
71806;SDS011;59655;42.590;23.364;2024-03-06T03:19:54;20.52;;;9.32;;
71806;SDS011;59655;42.590;23.364;2024-03-06T03:22:19;20.75;;;8.68;;
71806;SDS011;59655;42.590;23.364;2024-03-06T03:24:45;20.90;;;9.93;;
71806;SDS011;59655;42.590;23.364;2024-03-06T03:27:10;24.70;;;9.50;;
71806;SDS011;59655;42.590;23.364;2024-03-06T03:29:36;15.10;;;7.80;;
71806;SDS011;59655;42.590;23.364;2024-03-06T03:32:01;17.27;;;7.43;;
71806;SDS011;59655;42.590;23.364;2024-03-06T03:34:26;17.60;;;8.18;;
71806;SDS011;59655;42.590;23.364;2024-03-06T03:36:52;20.80;;;8.52;;
71806;SDS011;59655;42.590;23.364;2024-03-06T03:39:17;15.27;;;7.90;;
71806;SDS011;59655;42.590;23.364;2024-03-06T03:41:45;16.90;;;7.90;;
71806;SDS011;59655;42.590;23.364;2024-03-06T03:44:12;20.13;;;8.15;;
71806;SDS011;59655;42.590;23.364;2024-03-06T03:46:40;21.02;;;9.65;;
71806;SDS011;59655;42.590;23.364;2024-03-06T03:49:05;13.73;;;7.68;;
71806;SDS011;59655;42.590;23.364;2024-03-06T03:51:31;18.17;;;7.75;;
71806;SDS011;59655;42.590;23.364;2024-03-06T03:53:56;21.90;;;8.02;;
71806;SDS011;59655;42.590;23.364;2024-03-06T03:56:21;15.93;;;6.97;;
71806;SDS011;59655;42.590;23.364;2024-03-06T03:58:47;17.65;;;8.27;;
71806;SDS011;59655;42.590;23.364;2024-03-06T04:01:12;19.60;;;8.05;;
71806;SDS011;59655;42.590;23.364;2024-03-06T04:03:38;21.42;;;8.75;;
71806;SDS011;59655;42.590;23.364;2024-03-06T04:06:03;19.98;;;9.27;;
71806;SDS011;59655;42.590;23.364;2024-03-06T04:08:30;26.15;;;9.48;;
71806;SDS011;59655;42.590;23.364;2024-03-06T04:10:58;19.45;;;9.65;;
71806;SDS011;59655;42.590;23.364;2024-03-06T04:13:23;18.90;;;8.60;;
71806;SDS011;59655;42.590;23.364;2024-03-06T04:15:48;17.45;;;7.70;;
71806;SDS011;59655;42.590;23.364;2024-03-06T04:18:14;15.57;;;7.55;;
71806;SDS011;59655;42.590;23.364;2024-03-06T04:20:39;14.80;;;6.97;;
71806;SDS011;59655;42.590;23.364;2024-03-06T04:23:05;13.90;;;8.57;;
71806;SDS011;59655;42.590;23.364;2024-03-06T04:25:30;18.55;;;7.20;;
71806;SDS011;59655;42.590;23.364;2024-03-06T04:27:55;16.88;;;7.18;;
71806;SDS011;59655;42.590;23.364;2024-03-06T04:30:21;22.88;;;8.63;;
71806;SDS011;59655;42.590;23.364;2024-03-06T04:32:46;23.88;;;9.15;;
71806;SDS011;59655;42.590;23.364;2024-03-06T04:35:12;48.53;;;20.42;;
71806;SDS011;59655;42.590;23.364;2024-03-06T04:37:37;27.73;;;13.90;;
71806;SDS011;59655;42.590;23.364;2024-03-06T04:40:03;33.10;;;15.50;;
71806;SDS011;59655;42.590;23.364;2024-03-06T04:42:32;35.15;;;16.25;;
71806;SDS011;59655;42.590;23.364;2024-03-06T04:45:00;30.60;;;12.07;;
71806;SDS011;59655;42.590;23.364;2024-03-06T04:47:26;23.48;;;9.32;;
71806;SDS011;59655;42.590;23.364;2024-03-06T04:49:51;24.80;;;15.52;;
71806;SDS011;59655;42.590;23.364;2024-03-06T04:52:18;19.27;;;11.50;;
71806;SDS011;59655;42.590;23.364;2024-03-06T04:54:43;20.13;;;12.10;;
71806;SDS011;59655;42.590;23.364;2024-03-06T04:57:09;21.02;;;11.80;;
71806;SDS011;59655;42.590;23.364;2024-03-06T04:59:34;22.77;;;9.90;;
71806;SDS011;59655;42.590;23.364;2024-03-06T05:02:00;23.73;;;9.52;;
71806;SDS011;59655;42.590;23.364;2024-03-06T05:04:28;15.23;;;8.10;;
71806;SDS011;59655;42.590;23.364;2024-03-06T05:06:54;13.07;;;6.53;;
71806;SDS011;59655;42.590;23.364;2024-03-06T05:09:19;17.90;;;7.63;;
71806;SDS011;59655;42.590;23.364;2024-03-06T05:11:44;14.75;;;7.60;;
71806;SDS011;59655;42.590;23.364;2024-03-06T05:14:10;27.80;;;12.27;;
71806;SDS011;59655;42.590;23.364;2024-03-06T05:16:35;15.02;;;7.28;;
71806;SDS011;59655;42.590;23.364;2024-03-06T05:19:00;12.95;;;7.25;;
71806;SDS011;59655;42.590;23.364;2024-03-06T05:21:26;20.40;;;7.82;;
71806;SDS011;59655;42.590;23.364;2024-03-06T05:23:52;18.90;;;8.20;;
71806;SDS011;59655;42.590;23.364;2024-03-06T05:26:17;16.27;;;8.65;;
71806;SDS011;59655;42.590;23.364;2024-03-06T05:28:43;29.30;;;12.45;;
71806;SDS011;59655;42.590;23.364;2024-03-06T05:31:18;24.33;;;10.60;;
71806;SDS011;59655;42.590;23.364;2024-03-06T05:33:44;20.98;;;11.90;;
71806;SDS011;59655;42.590;23.364;2024-03-06T05:36:11;23.95;;;11.55;;
71806;SDS011;59655;42.590;23.364;2024-03-06T05:38:38;28.73;;;14.15;;
71806;SDS011;59655;42.590;23.364;2024-03-06T05:41:04;42.67;;;21.27;;
71806;SDS011;59655;42.590;23.364;2024-03-06T05:43:29;44.70;;;22.13;;
71806;SDS011;59655;42.590;23.364;2024-03-06T05:45:54;42.80;;;20.77;;
71806;SDS011;59655;42.590;23.364;2024-03-06T05:48:20;56.50;;;25.90;;
71806;SDS011;59655;42.590;23.364;2024-03-06T05:50:45;51.58;;;25.05;;
71806;SDS011;59655;42.590;23.364;2024-03-06T05:53:10;42.67;;;21.38;;
71806;SDS011;59655;42.590;23.364;2024-03-06T05:55:36;47.90;;;25.98;;
71806;SDS011;59655;42.590;23.364;2024-03-06T05:58:02;54.50;;;22.80;;
71806;SDS011;59655;42.590;23.364;2024-03-06T06:00:27;56.08;;;24.85;;
71806;SDS011;59655;42.590;23.364;2024-03-06T06:02:53;49.00;;;24.00;;
71806;SDS011;59655;42.590;23.364;2024-03-06T06:05:18;48.63;;;22.58;;
71806;SDS011;59655;42.590;23.364;2024-03-06T06:07:45;43.40;;;19.33;;
71806;SDS011;59655;42.590;23.364;2024-03-06T06:10:10;42.58;;;20.70;;
71806;SDS011;59655;42.590;23.364;2024-03-06T06:12:36;41.92;;;20.35;;
71806;SDS011;59655;42.590;23.364;2024-03-06T06:15:01;48.53;;;22.00;;
71806;SDS011;59655;42.590;23.364;2024-03-06T06:17:27;39.50;;;17.40;;
71806;SDS011;59655;42.590;23.364;2024-03-06T06:19:52;34.70;;;15.98;;
71806;SDS011;59655;42.590;23.364;2024-03-06T06:22:18;46.80;;;22.35;;
71806;SDS011;59655;42.590;23.364;2024-03-06T06:24:43;42.80;;;24.92;;
71806;SDS011;59655;42.590;23.364;2024-03-06T06:27:10;42.10;;;23.02;;
71806;SDS011;59655;42.590;23.364;2024-03-06T06:29:36;39.22;;;21.23;;
71806;SDS011;59655;42.590;23.364;2024-03-06T06:32:01;27.05;;;13.63;;
71806;SDS011;59655;42.590;23.364;2024-03-06T06:34:26;27.02;;;12.90;;
71806;SDS011;59655;42.590;23.364;2024-03-06T06:36:53;29.95;;;14.90;;
71806;SDS011;59655;42.590;23.364;2024-03-06T06:39:18;32.72;;;17.35;;
71806;SDS011;59655;42.590;23.364;2024-03-06T06:41:44;29.77;;;17.05;;
71806;SDS011;59655;42.590;23.364;2024-03-06T06:44:09;23.02;;;13.10;;
71806;SDS011;59655;42.590;23.364;2024-03-06T06:46:34;20.77;;;10.85;;
71806;SDS011;59655;42.590;23.364;2024-03-06T06:49:00;21.83;;;14.20;;
71806;SDS011;59655;42.590;23.364;2024-03-06T06:51:25;23.73;;;15.40;;
71806;SDS011;59655;42.590;23.364;2024-03-06T06:53:50;23.33;;;14.07;;
71806;SDS011;59655;42.590;23.364;2024-03-06T06:56:16;25.20;;;13.82;;
71806;SDS011;59655;42.590;23.364;2024-03-06T06:58:41;23.38;;;12.52;;
71806;SDS011;59655;42.590;23.364;2024-03-06T07:01:08;24.27;;;13.55;;
71806;SDS011;59655;42.590;23.364;2024-03-06T07:03:34;23.08;;;12.32;;
71806;SDS011;59655;42.590;23.364;2024-03-06T07:05:59;33.63;;;19.20;;
71806;SDS011;59655;42.590;23.364;2024-03-06T07:08:25;24.05;;;12.05;;
71806;SDS011;59655;42.590;23.364;2024-03-06T07:10:50;21.45;;;11.45;;
71806;SDS011;59655;42.590;23.364;2024-03-06T07:13:18;23.95;;;11.02;;
71806;SDS011;59655;42.590;23.364;2024-03-06T07:15:43;23.88;;;12.02;;
71806;SDS011;59655;42.590;23.364;2024-03-06T07:18:09;21.83;;;11.85;;
71806;SDS011;59655;42.590;23.364;2024-03-06T07:20:34;26.52;;;14.85;;
71806;SDS011;59655;42.590;23.364;2024-03-06T07:22:59;25.83;;;13.55;;
71806;SDS011;59655;42.590;23.364;2024-03-06T07:25:25;24.17;;;12.93;;
71806;SDS011;59655;42.590;23.364;2024-03-06T07:27:50;22.85;;;10.90;;
71806;SDS011;59655;42.590;23.364;2024-03-06T07:30:15;18.40;;;9.50;;
71806;SDS011;59655;42.590;23.364;2024-03-06T07:32:41;19.35;;;9.88;;
71806;SDS011;59655;42.590;23.364;2024-03-06T07:35:06;21.73;;;9.90;;
71806;SDS011;59655;42.590;23.364;2024-03-06T07:37:32;19.75;;;10.02;;
71806;SDS011;59655;42.590;23.364;2024-03-06T07:39:58;19.85;;;10.50;;
71806;SDS011;59655;42.590;23.364;2024-03-06T07:42:25;19.35;;;9.55;;
71806;SDS011;59655;42.590;23.364;2024-03-06T07:44:50;19.27;;;9.88;;
71806;SDS011;59655;42.590;23.364;2024-03-06T07:47:16;20.42;;;10.10;;
71806;SDS011;59655;42.590;23.364;2024-03-06T07:49:41;21.73;;;10.93;;
71806;SDS011;59655;42.590;23.364;2024-03-06T07:52:06;20.85;;;11.02;;
71806;SDS011;59655;42.590;23.364;2024-03-06T07:54:32;16.95;;;9.85;;
71806;SDS011;59655;42.590;23.364;2024-03-06T07:56:58;20.48;;;10.30;;
71806;SDS011;59655;42.590;23.364;2024-03-06T07:59:23;19.23;;;10.18;;
71806;SDS011;59655;42.590;23.364;2024-03-06T08:01:49;20.90;;;10.35;;
71806;SDS011;59655;42.590;23.364;2024-03-06T08:04:14;18.77;;;9.75;;
71806;SDS011;59655;42.590;23.364;2024-03-06T08:06:39;17.45;;;9.88;;
71806;SDS011;59655;42.590;23.364;2024-03-06T08:09:05;17.95;;;9.93;;
71806;SDS011;59655;42.590;23.364;2024-03-06T08:11:31;18.73;;;9.00;;
71806;SDS011;59655;42.590;23.364;2024-03-06T08:13:58;22.30;;;10.05;;
71806;SDS011;59655;42.590;23.364;2024-03-06T08:16:24;20.00;;;9.73;;
71806;SDS011;59655;42.590;23.364;2024-03-06T08:18:49;22.65;;;10.73;;
71806;SDS011;59655;42.590;23.364;2024-03-06T08:21:15;22.90;;;10.70;;
71806;SDS011;59655;42.590;23.364;2024-03-06T08:23:40;19.35;;;9.55;;
71806;SDS011;59655;42.590;23.364;2024-03-06T08:26:05;17.00;;;9.93;;
71806;SDS011;59655;42.590;23.364;2024-03-06T08:28:31;16.92;;;9.02;;
71806;SDS011;59655;42.590;23.364;2024-03-06T08:30:56;18.88;;;9.48;;
71806;SDS011;59655;42.590;23.364;2024-03-06T08:33:22;21.08;;;9.18;;
71806;SDS011;59655;42.590;23.364;2024-03-06T08:35:47;16.98;;;9.82;;
71806;SDS011;59655;42.590;23.364;2024-03-06T08:38:13;21.05;;;10.88;;
71806;SDS011;59655;42.590;23.364;2024-03-06T08:40:39;25.58;;;11.60;;
71806;SDS011;59655;42.590;23.364;2024-03-06T08:43:06;21.90;;;11.63;;
71806;SDS011;59655;42.590;23.364;2024-03-06T08:45:31;20.65;;;11.57;;
71806;SDS011;59655;42.590;23.364;2024-03-06T08:47:56;26.42;;;11.88;;
71806;SDS011;59655;42.590;23.364;2024-03-06T08:50:22;24.15;;;12.40;;
71806;SDS011;59655;42.590;23.364;2024-03-06T08:52:48;23.05;;;12.38;;
71806;SDS011;59655;42.590;23.364;2024-03-06T08:55:13;26.00;;;13.73;;
71806;SDS011;59655;42.590;23.364;2024-03-06T08:57:39;25.60;;;13.73;;
71806;SDS011;59655;42.590;23.364;2024-03-06T09:00:05;28.85;;;13.40;;
71806;SDS011;59655;42.590;23.364;2024-03-06T09:02:35;27.30;;;13.38;;
71806;SDS011;59655;42.590;23.364;2024-03-06T09:05:03;26.75;;;13.57;;
71806;SDS011;59655;42.590;23.364;2024-03-06T09:07:29;29.05;;;13.38;;
71806;SDS011;59655;42.590;23.364;2024-03-06T09:09:55;26.33;;;12.98;;
71806;SDS011;59655;42.590;23.364;2024-03-06T09:12:20;27.50;;;12.80;;
71806;SDS011;59655;42.590;23.364;2024-03-06T09:14:46;29.17;;;13.57;;
71806;SDS011;59655;42.590;23.364;2024-03-06T09:17:11;24.83;;;13.35;;
71806;SDS011;59655;42.590;23.364;2024-03-06T09:19:40;24.05;;;11.30;;
71806;SDS011;59655;42.590;23.364;2024-03-06T09:22:05;21.73;;;11.55;;
71806;SDS011;59655;42.590;23.364;2024-03-06T09:24:31;26.90;;;12.13;;
71806;SDS011;59655;42.590;23.364;2024-03-06T09:26:56;25.83;;;12.13;;
71806;SDS011;59655;42.590;23.364;2024-03-06T09:29:22;21.98;;;11.43;;
71806;SDS011;59655;42.590;23.364;2024-03-06T09:31:48;26.48;;;12.15;;
71806;SDS011;59655;42.590;23.364;2024-03-06T09:34:13;21.77;;;11.88;;
71806;SDS011;59655;42.590;23.364;2024-03-06T09:36:40;22.10;;;12.85;;
71806;SDS011;59655;42.590;23.364;2024-03-06T09:39:09;29.33;;;12.38;;
71806;SDS011;59655;42.590;23.364;2024-03-06T09:41:41;24.40;;;13.48;;
71806;SDS011;59655;42.590;23.364;2024-03-06T09:44:07;24.75;;;13.65;;
71806;SDS011;59655;42.590;23.364;2024-03-06T09:46:35;24.02;;;13.38;;
71806;SDS011;59655;42.590;23.364;2024-03-06T09:49:01;26.58;;;12.27;;
71806;SDS011;59655;42.590;23.364;2024-03-06T09:51:27;26.77;;;12.93;;
71806;SDS011;59655;42.590;23.364;2024-03-06T09:53:53;29.10;;;14.02;;
71806;SDS011;59655;42.590;23.364;2024-03-06T09:56:19;25.63;;;12.90;;
71806;SDS011;59655;42.590;23.364;2024-03-06T09:58:45;31.58;;;13.40;;
71806;SDS011;59655;42.590;23.364;2024-03-06T10:01:11;31.15;;;14.65;;
71806;SDS011;59655;42.590;23.364;2024-03-06T10:03:38;28.38;;;13.38;;
71806;SDS011;59655;42.590;23.364;2024-03-06T10:06:05;26.42;;;13.10;;
71806;SDS011;59655;42.590;23.364;2024-03-06T10:08:32;23.60;;;14.05;;
71806;SDS011;59655;42.590;23.364;2024-03-06T10:10:58;24.70;;;11.95;;
71806;SDS011;59655;42.590;23.364;2024-03-06T10:13:25;27.52;;;13.48;;
71806;SDS011;59655;42.590;23.364;2024-03-06T10:16:00;27.77;;;13.88;;
71806;SDS011;59655;42.590;23.364;2024-03-06T10:18:27;27.52;;;14.95;;
71806;SDS011;59655;42.590;23.364;2024-03-06T10:20:54;27.60;;;14.57;;
71806;SDS011;59655;42.590;23.364;2024-03-06T10:23:20;27.02;;;12.98;;
71806;SDS011;59655;42.590;23.364;2024-03-06T10:25:49;26.80;;;14.88;;
71806;SDS011;59655;42.590;23.364;2024-03-06T10:28:21;29.45;;;13.75;;
71806;SDS011;59655;42.590;23.364;2024-03-06T10:30:48;23.35;;;10.98;;
71806;SDS011;59655;42.590;23.364;2024-03-06T10:33:15;27.80;;;13.52;;
71806;SDS011;59655;42.590;23.364;2024-03-06T10:35:44;25.13;;;11.50;;
71806;SDS011;59655;42.590;23.364;2024-03-06T10:38:11;22.65;;;11.18;;
71806;SDS011;59655;42.590;23.364;2024-03-06T10:40:38;21.50;;;11.10;;
71806;SDS011;59655;42.590;23.364;2024-03-06T10:43:05;24.08;;;11.45;;
71806;SDS011;59655;42.590;23.364;2024-03-06T10:45:50;15.18;;;9.45;;
71806;SDS011;59655;42.590;23.364;2024-03-06T10:48:17;19.95;;;9.90;;
71806;SDS011;59655;42.590;23.364;2024-03-06T10:50:44;22.00;;;9.60;;
71806;SDS011;59655;42.590;23.364;2024-03-06T10:53:14;18.50;;;9.35;;
71806;SDS011;59655;42.590;23.364;2024-03-06T10:55:43;17.83;;;9.77;;
71806;SDS011;59655;42.590;23.364;2024-03-06T10:58:09;18.90;;;9.48;;
71806;SDS011;59655;42.590;23.364;2024-03-06T11:00:42;13.70;;;7.80;;
71806;SDS011;59655;42.590;23.364;2024-03-06T11:03:11;17.83;;;9.43;;
71806;SDS011;59655;42.590;23.364;2024-03-06T11:05:40;18.65;;;8.75;;
71806;SDS011;59655;42.590;23.364;2024-03-06T11:08:07;16.35;;;9.13;;
71806;SDS011;59655;42.590;23.364;2024-03-06T11:10:34;18.77;;;9.55;;
71806;SDS011;59655;42.590;23.364;2024-03-06T11:13:01;16.60;;;8.70;;
71806;SDS011;59655;42.590;23.364;2024-03-06T11:15:28;14.10;;;7.53;;
71806;SDS011;59655;42.590;23.364;2024-03-06T11:17:53;13.43;;;7.25;;
71806;SDS011;59655;42.590;23.364;2024-03-06T11:20:19;14.63;;;8.40;;
71806;SDS011;59655;42.590;23.364;2024-03-06T11:28:21;17.58;;;8.00;;
71806;SDS011;59655;42.590;23.364;2024-03-06T11:31:01;15.10;;;8.43;;
71806;SDS011;59655;42.590;23.364;2024-03-06T11:33:34;16.52;;;8.25;;
71806;SDS011;59655;42.590;23.364;2024-03-06T11:36:15;13.65;;;7.85;;
71806;SDS011;59655;42.590;23.364;2024-03-06T11:41:24;16.48;;;9.05;;
71806;SDS011;59655;42.590;23.364;2024-03-06T11:43:53;16.88;;;8.18;;
71806;SDS011;59655;42.590;23.364;2024-03-06T11:46:21;16.25;;;8.60;;
71806;SDS011;59655;42.590;23.364;2024-03-06T11:48:54;12.48;;;7.78;;
71806;SDS011;59655;42.590;23.364;2024-03-06T11:51:20;17.45;;;8.77;;
71806;SDS011;59655;42.590;23.364;2024-03-06T11:53:49;16.02;;;7.57;;
71806;SDS011;59655;42.590;23.364;2024-03-06T11:56:15;13.15;;;8.30;;
71806;SDS011;59655;42.590;23.364;2024-03-06T11:58:41;15.27;;;7.78;;
71806;SDS011;59655;42.590;23.364;2024-03-06T12:01:07;15.20;;;6.82;;
71806;SDS011;59655;42.590;23.364;2024-03-06T12:03:32;18.52;;;8.35;;
71806;SDS011;59655;42.590;23.364;2024-03-06T12:05:58;21.05;;;8.20;;
71806;SDS011;59655;42.590;23.364;2024-03-06T12:08:24;14.23;;;7.35;;
71806;SDS011;59655;42.590;23.364;2024-03-06T12:10:49;16.48;;;7.80;;
71806;SDS011;59655;42.590;23.364;2024-03-06T12:13:14;12.77;;;7.50;;
71806;SDS011;59655;42.590;23.364;2024-03-06T12:15:43;13.73;;;7.70;;
71806;SDS011;59655;42.590;23.364;2024-03-06T12:18:09;14.45;;;7.88;;
71806;SDS011;59655;42.590;23.364;2024-03-06T12:20:35;17.92;;;8.25;;
71806;SDS011;59655;42.590;23.364;2024-03-06T12:23:00;12.25;;;7.35;;
71806;SDS011;59655;42.590;23.364;2024-03-06T12:25:26;14.18;;;7.18;;
71806;SDS011;59655;42.590;23.364;2024-03-06T12:27:53;16.65;;;7.47;;
71806;SDS011;59655;42.590;23.364;2024-03-06T12:30:20;12.23;;;6.93;;
71806;SDS011;59655;42.590;23.364;2024-03-06T12:32:57;12.02;;;7.05;;
71806;SDS011;59655;42.590;23.364;2024-03-06T12:35:26;14.55;;;7.40;;
71806;SDS011;59655;42.590;23.364;2024-03-06T12:37:52;13.05;;;7.32;;
71806;SDS011;59655;42.590;23.364;2024-03-06T12:40:18;19.55;;;8.15;;
71806;SDS011;59655;42.590;23.364;2024-03-06T12:42:44;17.15;;;7.72;;
71806;SDS011;59655;42.590;23.364;2024-03-06T12:45:11;19.05;;;8.40;;
71806;SDS011;59655;42.590;23.364;2024-03-06T12:47:42;16.88;;;7.82;;
71806;SDS011;59655;42.590;23.364;2024-03-06T12:50:08;13.30;;;7.43;;
71806;SDS011;59655;42.590;23.364;2024-03-06T12:52:35;13.80;;;7.38;;
71806;SDS011;59655;42.590;23.364;2024-03-06T12:55:01;15.82;;;6.97;;
71806;SDS011;59655;42.590;23.364;2024-03-06T12:57:26;14.10;;;7.53;;
71806;SDS011;59655;42.590;23.364;2024-03-06T12:59:55;14.13;;;7.75;;
71806;SDS011;59655;42.590;23.364;2024-03-06T13:02:20;15.15;;;7.43;;
71806;SDS011;59655;42.590;23.364;2024-03-06T13:04:45;11.88;;;6.13;;
71806;SDS011;59655;42.590;23.364;2024-03-06T13:07:11;10.88;;;7.15;;
71806;SDS011;59655;42.590;23.364;2024-03-06T13:09:36;13.10;;;6.60;;
71806;SDS011;59655;42.590;23.364;2024-03-06T13:12:03;12.88;;;6.72;;
71806;SDS011;59655;42.590;23.364;2024-03-06T13:14:29;12.40;;;7.75;;
71806;SDS011;59655;42.590;23.364;2024-03-06T13:16:55;14.55;;;7.28;;
71806;SDS011;59655;42.590;23.364;2024-03-06T13:19:21;11.63;;;5.78;;
71806;SDS011;59655;42.590;23.364;2024-03-06T13:21:47;11.27;;;5.43;;
71806;SDS011;59655;42.590;23.364;2024-03-06T13:24:12;13.57;;;5.10;;
71806;SDS011;59655;42.590;23.364;2024-03-06T13:26:38;12.55;;;5.35;;
71806;SDS011;59655;42.590;23.364;2024-03-06T13:29:05;9.70;;;4.72;;
71806;SDS011;59655;42.590;23.364;2024-03-06T13:31:31;9.75;;;5.22;;
71806;SDS011;59655;42.590;23.364;2024-03-06T13:33:58;13.75;;;4.95;;
71806;SDS011;59655;42.590;23.364;2024-03-06T13:36:25;10.98;;;5.32;;
71806;SDS011;59655;42.590;23.364;2024-03-06T13:38:50;12.63;;;5.53;;
71806;SDS011;59655;42.590;23.364;2024-03-06T13:41:16;11.50;;;5.13;;
71806;SDS011;59655;42.590;23.364;2024-03-06T13:43:41;11.60;;;5.53;;
71806;SDS011;59655;42.590;23.364;2024-03-06T13:46:07;9.73;;;4.90;;
71806;SDS011;59655;42.590;23.364;2024-03-06T13:48:32;15.70;;;5.18;;
71806;SDS011;59655;42.590;23.364;2024-03-06T13:50:57;10.43;;;5.80;;
71806;SDS011;59655;42.590;23.364;2024-03-06T13:53:23;9.77;;;5.05;;
71806;SDS011;59655;42.590;23.364;2024-03-06T13:55:48;10.93;;;5.50;;
71806;SDS011;59655;42.590;23.364;2024-03-06T13:58:13;12.65;;;5.13;;
71806;SDS011;59655;42.590;23.364;2024-03-06T14:00:39;10.48;;;5.13;;
71806;SDS011;59655;42.590;23.364;2024-03-06T14:03:05;10.82;;;5.13;;
71806;SDS011;59655;42.590;23.364;2024-03-06T14:05:30;9.05;;;4.88;;
71806;SDS011;59655;42.590;23.364;2024-03-06T14:07:55;11.27;;;4.95;;
71806;SDS011;59655;42.590;23.364;2024-03-06T14:10:21;8.65;;;4.75;;
71806;SDS011;59655;42.590;23.364;2024-03-06T14:12:49;10.77;;;4.90;;
71806;SDS011;59655;42.590;23.364;2024-03-06T14:15:17;11.85;;;5.43;;
71806;SDS011;59655;42.590;23.364;2024-03-06T14:17:44;13.90;;;6.13;;
71806;SDS011;59655;42.590;23.364;2024-03-06T14:20:10;10.60;;;5.38;;